Time;durP1;ratioP1;P1;durP2;ratioP2;P2;SDS_P1;SDS_P2;PMS_P1;PMS_P2;Temp;Humidity;BMP_temperature;BMP_pressure;BME280_temperature;BME280_humidity;BME280_pressure;Samples;Min_cycle;Max_cycle;Signal;HPM_P1;HPM_P2
2023/09/23 00:01:20;;;;;;;;;;;;;;;-140.72;100.00;52963.13;5074828;28;19954;-67
2023/09/23 00:03:49;;;;;;;;;;;;;;;-140.72;100.00;52938.75;5071885;28;19960;-68
2023/09/23 00:06:14;;;;;;;;;;;;;;;-140.72;100.00;52989.50;5067275;28;20299;-67
2023/09/23 00:08:45;;;;;;;;;;;;;;;-140.72;100.00;52948.91;5068869;28;19924;-68
2023/09/23 00:11:11;;;;;;;;;;;;;;;-140.72;100.00;52938.75;5069503;28;19924;-67
2023/09/23 00:13:36;;;;;;;;;;;;;;;-140.72;100.00;52971.22;5067647;28;20018;-68
2023/09/23 00:16:08;;;;;;;;;;;;;;;-140.72;100.00;52995.59;5066798;28;19928;-67
2023/09/23 00:18:33;;;;;;;;;;;;;;;-140.72;100.00;52942.81;5068072;28;19921;-67
2023/09/23 00:20:58;;;;;;;;;;;;;;;-140.72;100.00;52989.50;5064490;28;19954;-68
2023/09/23 00:23:23;;;;;;;;;;;;;;;-140.72;100.00;52981.38;5069897;28;19962;-67
2023/09/23 00:25:49;;;;;;;;;;;;;;;-140.72;100.00;52975.28;5070490;28;19921;-67
2023/09/23 00:28:14;;;;;;;;;;;;;;;-140.72;100.00;52934.69;5070838;28;19920;-67
2023/09/23 00:30:40;;;;;;;;;;;;;;;-140.72;100.00;52985.44;5069403;28;19966;-67
2023/09/23 00:33:07;;;;;;;;;;;;;;;-140.72;100.00;52975.28;5075157;28;19928;-67
2023/09/23 00:35:36;;;;;;;;;;;;;;;-140.72;100.00;52973.25;5070190;28;19921;-67
2023/09/23 00:38:02;;;;;;;;;;;;;;;-140.72;100.00;52983.41;5073246;28;19921;-67
2023/09/23 00:40:31;;;;;;;;;;;;;;;-140.72;100.00;52979.34;5072815;28;19916;-67
2023/09/23 00:42:57;;;;;;;;;;;;;;;-140.72;100.00;52985.44;5072682;28;19928;-68
2023/09/23 00:45:25;;;;;;;;;;;;;;;-140.72;100.00;52987.47;5075029;28;19921;-67
2023/09/23 00:47:51;;;;;;;;;;;;;;;-140.72;100.00;52991.53;5066891;28;19931;-68
2023/09/23 00:50:18;;;;;;;;;;;;;;;-140.72;100.00;52979.34;5074585;28;20401;-68
2023/09/23 00:52:44;;;;;;;;;;;;;;;-140.72;100.00;52987.47;5064310;28;19921;-68
2023/09/23 00:55:10;;;;;;;;;;;;;;;-140.72;100.00;53011.81;5074499;28;19943;-68
2023/09/23 00:57:36;;;;;;;;;;;;;;;-140.72;100.00;53007.75;5073521;28;19920;-67
2023/09/23 01:00:03;;;;;;;;;;;;;;;-140.72;100.00;52928.63;5071936;28;19923;-68
2023/09/23 01:02:29;;;;;;;;;;;;;;;-140.72;100.00;52967.16;5068531;28;20371;-68
2023/09/23 01:04:55;;;;;;;;;;;;;;;-140.72;100.00;52944.84;5065113;28;19920;-69
2023/09/23 01:07:20;;;;;;;;;;;;;;;-140.72;100.00;52991.53;5070975;28;20341;-67
2023/09/23 01:09:46;;;;;;;;;;;;;;;-140.72;100.00;52981.38;5069683;28;19920;-67
2023/09/23 01:12:13;;;;;;;;;;;;;;;-140.72;100.00;52985.44;5076288;28;20317;-67
2023/09/23 01:14:38;;;;;;;;;;;;;;;-140.72;100.00;52934.69;5076744;28;19920;-67
2023/09/23 01:17:16;;;;;;;;;;;;;;;-140.72;100.00;52955.00;5064994;28;19927;-67
2023/09/23 01:19:41;;;;;;;;;;;;;;;-140.72;100.00;52950.94;5074081;28;19921;-67
2023/09/23 01:22:30;;;;;;;;;;;;;;;-140.72;100.00;52963.13;5071750;28;19982;-67
2023/09/23 01:24:58;;;;;;;;;;;;;;;-140.72;100.00;52995.59;5069896;28;19917;-67
2023/09/23 01:27:24;;;;;;;;;;;;;;;-140.72;100.00;52946.88;5073040;28;20003;-67
2023/09/23 01:29:53;;;;;;;;;;;;;;;-140.72;100.00;52946.88;5069415;28;20493;-67
2023/09/23 01:32:30;;;;;;;;;;;;;;;-140.72;100.00;52967.16;5071565;28;19954;-67
2023/09/23 01:34:56;;;;;;;;;;;;;;;-140.72;100.00;52983.41;5064188;28;19946;-67
2023/09/23 01:37:21;;;;;;;;;;;;;;;-140.72;100.00;52946.88;5066335;28;20029;-68
2023/09/23 01:39:47;;;;;;;;;;;;;;;-140.72;100.00;52973.25;5071755;28;19981;-68
2023/09/23 01:42:13;;;;;;;;;;;;;;;-140.72;100.00;52965.16;5065173;28;19920;-67
2023/09/23 01:44:38;;;;;;;;;;;;;;;-140.72;100.00;52918.47;5073156;28;19921;-68
2023/09/23 01:47:12;;;;;;;;;;;;;;;-140.72;100.00;52975.28;5074448;28;20004;-68
2023/09/23 01:49:38;;;;;;;;;;;;;;;-140.72;100.00;52959.06;5072884;28;20282;-68
2023/09/23 01:52:03;;;;;;;;;;;;;;;-140.72;100.00;52973.25;5065401;28;19921;-68
2023/09/23 01:54:29;;;;;;;;;;;;;;;-140.72;100.00;53003.69;5072803;28;19928;-67
2023/09/23 01:56:54;;;;;;;;;;;;;;;-140.72;100.00;52936.72;5072360;28;20024;-67
2023/09/23 01:59:20;;;;;;;;;;;;;;;-140.72;100.00;52963.13;5071416;28;19932;-68
2023/09/23 02:01:45;;;;;;;;;;;;;;;-140.72;100.00;52952.97;5073838;28;19921;-68
2023/09/23 02:04:11;;;;;;;;;;;;;;;-140.72;100.00;52934.69;5063791;28;19921;-68
2023/09/23 02:06:43;;;;;;;;;;;;;;;-140.72;100.00;52981.38;5066310;28;19958;-67
2023/09/23 02:09:09;;;;;;;;;;;;;;;-140.72;100.00;52989.50;5069031;28;19955;-68
2023/09/23 02:11:37;;;;;;;;;;;;;;;-140.72;100.00;52959.06;5074754;28;19928;-68
2023/09/23 02:14:02;;;;;;;;;;;;;;;-140.72;100.00;52971.22;5068543;28;20011;-68
2023/09/23 02:16:27;;;;;;;;;;;;;;;-140.72;100.00;52975.28;5065255;28;20043;-67
2023/09/23 02:18:52;;;;;;;;;;;;;;;-140.72;100.00;52999.66;5068897;28;19948;-67
2023/09/23 02:21:18;;;;;;;;;;;;;;;-140.72;100.00;53003.69;5070349;28;19978;-67
2023/09/23 02:23:45;;;;;;;;;;;;;;;-140.72;100.00;52975.28;5070723;28;20399;-67
2023/09/23 02:26:11;;;;;;;;;;;;;;;-140.72;100.00;52981.38;5068922;28;19934;-67
2023/09/23 02:28:36;;;;;;;;;;;;;;;-140.72;100.00;52967.16;5066990;28;20286;-67
2023/09/23 02:31:02;;;;;;;;;;;;;;;-140.72;100.00;52950.94;5071416;28;19921;-68
2023/09/23 02:33:28;;;;;;;;;;;;;;;-140.72;100.00;52952.97;5065319;28;20271;-67
2023/09/23 02:35:54;;;;;;;;;;;;;;;-140.72;100.00;52967.16;5070388;28;20015;-67
2023/09/23 02:38:21;;;;;;;;;;;;;;;-140.72;100.00;52961.09;5067813;28;20651;-67
2023/09/23 02:40:47;;;;;;;;;;;;;;;-140.72;100.00;52934.69;5070467;28;19921;-67
2023/09/23 02:43:18;;;;;;;;;;;;;;;-140.72;100.00;52944.84;5068426;28;19921;-67
2023/09/23 02:45:44;;;;;;;;;;;;;;;-140.72;100.00;52979.34;5070734;28;19993;-67
2023/09/23 02:48:13;;;;;;;;;;;;;;;-140.72;100.00;52975.28;5073414;28;19971;-67
2023/09/23 02:51:04;;;;;;;;;;;;;;;-140.72;100.00;52995.59;5062337;28;19928;-68
2023/09/23 02:53:30;;;;;;;;;;;;;;;-140.72;100.00;52975.28;5069640;28;19981;-68
2023/09/23 02:56:04;;;;;;;;;;;;;;;-140.72;100.00;53007.75;5071320;28;19921;-67
2023/09/23 02:58:29;;;;;;;;;;;;;;;-140.72;100.00;52950.94;5070123;28;19921;-67
2023/09/23 03:00:58;;;;;;;;;;;;;;;-140.72;100.00;52922.53;5066769;28;20271;-67
2023/09/23 03:03:23;;;;;;;;;;;;;;;-140.72;100.00;52946.88;5066987;28;19974;-68
2023/09/23 03:05:54;;;;;;;;;;;;;;;-140.72;100.00;52959.06;5068126;28;19955;-68
2023/09/23 03:08:21;;;;;;;;;;;;;;;-140.72;100.00;52975.28;5069072;28;20390;-68
2023/09/23 03:11:10;;;;;;;;;;;;;;;-140.72;100.00;52930.66;5065980;28;19921;-68
2023/09/23 03:13:37;;;;;;;;;;;;;;;-140.72;100.00;52987.47;5068488;28;20267;-68
2023/09/23 03:16:30;;;;;;;;;;;;;;;-140.72;100.00;52987.47;5071647;28;20290;-67
2023/09/23 03:19:10;;;;;;;;;;;;;;;-140.72;100.00;52959.06;5069888;28;19962;-68
2023/09/23 03:21:35;;;;;;;;;;;;;;;-140.72;100.00;52932.66;5069970;28;19917;-68
2023/09/23 03:24:00;;;;;;;;;;;;;;;-140.72;100.00;52981.38;5061069;28;19969;-68
2023/09/23 03:26:26;;;;;;;;;;;;;;;-140.72;100.00;52969.19;5073079;28;20002;-67
2023/09/23 03:28:51;;;;;;;;;;;;;;;-140.72;100.00;52977.31;5073231;28;20302;-67
2023/09/23 03:31:16;;;;;;;;;;;;;;;-140.72;100.00;52967.16;5074443;28;19921;-67
2023/09/23 03:33:44;;;;;;;;;;;;;;;-140.72;100.00;52991.53;5071958;28;19929;-67
2023/09/23 03:36:14;;;;;;;;;;;;;;;-140.72;100.00;52957.03;5085153;28;20436;-67
2023/09/23 03:38:39;;;;;;;;;;;;;;;-140.72;100.00;52940.78;5071160;28;19921;-67
2023/09/23 03:41:04;;;;;;;;;;;;;;;-140.72;100.00;52983.41;5072509;28;21361;-68
2023/09/23 03:43:30;;;;;;;;;;;;;;;-140.72;100.00;52938.75;5071206;28;19955;-67
2023/09/23 03:45:56;;;;;;;;;;;;;;;-140.72;100.00;52910.34;5073830;28;19928;-67
2023/09/23 03:48:21;;;;;;;;;;;;;;;-140.72;100.00;52967.16;5065666;28;19999;-67
2023/09/23 03:50:53;;;;;;;;;;;;;;;-140.72;100.00;52977.31;5073909;28;20547;-67
2023/09/23 03:53:21;;;;;;;;;;;;;;;-140.72;100.00;52952.97;5065104;28;19963;-67
2023/09/23 03:55:46;;;;;;;;;;;;;;;-140.72;100.00;52961.09;5066986;28;19948;-67
2023/09/23 03:58:12;;;;;;;;;;;;;;;-140.72;100.00;52948.91;5066634;28;19959;-67
2023/09/23 04:00:37;;;;;;;;;;;;;;;-140.72;100.00;52950.94;5076355;28;20275;-67
2023/09/23 04:03:02;;;;;;;;;;;;;;;-140.72;100.00;52959.06;5070043;28;19928;-67
2023/09/23 04:05:30;;;;;;;;;;;;;;;-140.72;100.00;52967.16;5070364;28;19917;-67
2023/09/23 04:07:56;;;;;;;;;;;;;;;-140.72;100.00;52930.66;5072367;28;19920;-67
2023/09/23 04:10:25;;;;;;;;;;;;;;;-140.72;100.00;52971.22;5071731;28;19917;-67
2023/09/23 04:12:51;;;;;;;;;;;;;;;-140.72;100.00;52955.00;5074562;28;19924;-67
2023/09/23 04:15:19;;;;;;;;;;;;;;;-140.72;100.00;52948.91;5072034;28;19916;-67
2023/09/23 04:17:44;;;;;;;;;;;;;;;-140.72;100.00;52934.69;5069183;28;19917;-67
2023/09/23 04:20:10;;;;;;;;;;;;;;;-140.72;100.00;52975.28;5074923;28;20007;-67
2023/09/23 04:22:36;;;;;;;;;;;;;;;-140.72;100.00;53017.91;5065488;28;19928;-67
2023/09/23 04:25:03;;;;;;;;;;;;;;;-140.72;100.00;52967.16;5074284;28;19991;-67
2023/09/23 04:27:28;;;;;;;;;;;;;;;-140.72;100.00;53007.75;5075398;28;20294;-67
2023/09/23 04:29:54;;;;;;;;;;;;;;;-140.72;100.00;52999.66;5073895;28;19927;-67
2023/09/23 04:32:20;;;;;;;;;;;;;;;-140.72;100.00;52993.56;5075003;28;19927;-68
2023/09/23 04:34:45;;;;;;;;;;;;;;;-140.72;100.00;52948.91;5072096;28;19989;-68
2023/09/23 04:37:12;;;;;;;;;;;;;;;-140.72;100.00;52995.59;5072421;28;20367;-67
2023/09/23 04:39:46;;;;;;;;;;;;;;;-140.72;100.00;52981.38;5074469;28;20267;-67
2023/09/23 04:42:11;;;;;;;;;;;;;;;-140.72;100.00;52991.53;5070082;28;19916;-68
2023/09/23 04:44:37;;;;;;;;;;;;;;;-140.72;100.00;52969.19;5072180;28;19966;-68
2023/09/23 04:47:03;;;;;;;;;;;;;;;-140.72;100.00;52957.03;5069365;28;19983;-67
2023/09/23 04:49:40;;;;;;;;;;;;;;;-140.72;100.00;52969.19;5071829;28;19970;-67
2023/09/23 04:52:05;;;;;;;;;;;;;;;-140.72;100.00;52957.03;5070267;28;20285;-67
2023/09/23 04:54:31;;;;;;;;;;;;;;;-140.72;100.00;52969.19;5070368;28;19974;-67
2023/09/23 04:57:09;;;;;;;;;;;;;;;-140.72;100.00;52977.31;5074381;28;19962;-67
2023/09/23 04:59:35;;;;;;;;;;;;;;;-140.72;100.00;53005.72;5065365;28;20264;-68
2023/09/23 05:02:00;;;;;;;;;;;;;;;-140.72;100.00;53013.84;5074128;28;19927;-70
2023/09/23 05:04:25;;;;;;;;;;;;;;;-140.72;100.00;52975.28;5069731;28;20069;-71
2023/09/23 05:06:50;;;;;;;;;;;;;;;-140.72;100.00;52930.66;5067024;28;20413;-70
2023/09/23 05:09:16;;;;;;;;;;;;;;;-140.72;100.00;52940.78;5066388;28;20345;-70
2023/09/23 05:11:41;;;;;;;;;;;;;;;-140.72;100.00;52987.47;5069644;28;19921;-69
2023/09/23 05:14:07;;;;;;;;;;;;;;;-140.72;100.00;52940.78;5065941;28;19926;-70
2023/09/23 05:16:32;;;;;;;;;;;;;;;-140.72;100.00;52955.00;5069276;28;20190;-70
2023/09/23 05:18:57;;;;;;;;;;;;;;;-140.72;100.00;52940.78;5069608;28;20014;-70
2023/09/23 05:21:22;;;;;;;;;;;;;;;-140.72;100.00;52938.75;5069457;28;19975;-71
2023/09/23 05:23:49;;;;;;;;;;;;;;;-140.72;100.00;52955.00;5071343;28;19959;-71
2023/09/23 05:26:16;;;;;;;;;;;;;;;-140.72;100.00;52971.22;5067889;28;19921;-71
2023/09/23 05:28:41;;;;;;;;;;;;;;;-140.72;100.00;52971.22;5069657;28;19966;-72
2023/09/23 05:31:06;;;;;;;;;;;;;;;-140.72;100.00;52934.69;5065992;28;19924;-71
2023/09/23 05:33:31;;;;;;;;;;;;;;;-140.72;100.00;52967.16;5071131;28;19946;-71
2023/09/23 05:35:57;;;;;;;;;;;;;;;-140.72;100.00;52971.22;5068650;28;19970;-69
2023/09/23 05:38:23;;;;;;;;;;;;;;;-140.72;100.00;52946.88;5064331;28;20364;-69
2023/09/23 05:40:51;;;;;;;;;;;;;;;-140.72;100.00;52942.81;5064906;28;19920;-70
2023/09/23 05:43:17;;;;;;;;;;;;;;;-140.72;100.00;53007.75;5067840;28;19920;-69
2023/09/23 05:45:42;;;;;;;;;;;;;;;-140.72;100.00;52946.88;5066441;28;19929;-68
2023/09/23 05:48:07;;;;;;;;;;;;;;;-140.72;100.00;52946.88;5066462;28;20011;-73
2023/09/23 05:50:33;;;;;;;;;;;;;;;-140.72;100.00;52983.41;5067225;28;19971;-69
2023/09/23 05:52:58;;;;;;;;;;;;;;;-140.72;100.00;52979.34;5069997;28;19999;-68
2023/09/23 05:55:23;;;;;;;;;;;;;;;-140.72;100.00;52977.31;5065953;28;19924;-69
2023/09/23 05:57:49;;;;;;;;;;;;;;;-140.72;100.00;52969.19;5068511;28;19927;-75
2023/09/23 06:00:15;;;;;;;;;;;;;;;-140.72;100.00;52983.41;5064339;28;19955;-69
2023/09/23 06:02:41;;;;;;;;;;;;;;;-140.72;100.00;52963.13;5065597;28;19931;-77
2023/09/23 06:05:06;;;;;;;;;;;;;;;-140.72;100.00;52952.97;5064798;28;19920;-69
2023/09/23 06:07:31;;;;;;;;;;;;;;;-140.72;100.00;52959.06;5065447;28;19928;-69
2023/09/23 06:09:58;;;;;;;;;;;;;;;-140.72;100.00;52971.22;5060672;28;19925;-69
2023/09/23 06:12:26;;;;;;;;;;;;;;;-140.72;100.00;52914.41;5069844;28;20409;-69
2023/09/23 06:14:52;;;;;;;;;;;;;;;-140.72;100.00;52989.50;5066107;28;19974;-69
2023/09/23 06:17:17;;;;;;;;;;;;;;;-140.72;100.00;52950.94;5063234;28;19928;-69
2023/09/23 06:19:43;;;;;;;;;;;;;;;-140.72;100.00;52948.91;5064671;28;19934;-67
2023/09/23 06:22:08;;;;;;;;;;;;;;;-140.72;100.00;52906.28;5066146;28;19920;-67
2023/09/23 06:24:33;;;;;;;;;;;;;;;-140.72;100.00;52924.56;5068203;28;19928;-68
2023/09/23 06:26:58;;;;;;;;;;;;;;;-140.72;100.00;52926.59;5066024;28;19921;-67
2023/09/23 06:29:24;;;;;;;;;;;;;;;-140.72;100.00;52940.78;5062196;28;20325;-67
2023/09/23 06:31:49;;;;;;;;;;;;;;;-140.72;100.00;52944.84;5066850;28;20367;-68
2023/09/23 06:34:14;;;;;;;;;;;;;;;-140.72;100.00;52940.78;5071421;28;19928;-68
2023/09/23 06:36:39;;;;;;;;;;;;;;;-140.72;100.00;52928.63;5067156;28;19970;-68
2023/09/23 06:39:04;;;;;;;;;;;;;;;-140.72;100.00;52916.44;5059383;28;20011;-70
2023/09/23 06:41:30;;;;;;;;;;;;;;;-140.72;100.00;52926.59;5062208;28;19928;-68
2023/09/23 06:43:55;;;;;;;;;;;;;;;-140.72;100.00;52924.56;5064516;28;19932;-70
2023/09/23 06:46:20;;;;;;;;;;;;;;;-140.72;100.00;52950.94;5067331;28;19921;-70
2023/09/23 06:48:45;;;;;;;;;;;;;;;-140.72;100.00;52934.69;5067048;28;19924;-70
2023/09/23 06:51:11;;;;;;;;;;;;;;;-140.72;100.00;52924.56;5070705;28;20286;-70
2023/09/23 06:53:36;;;;;;;;;;;;;;;-140.72;100.00;52912.38;5073935;28;19921;-70
2023/09/23 06:56:02;;;;;;;;;;;;;;;-140.72;100.00;52865.69;5070032;28;19920;-70
2023/09/23 06:58:27;;;;;;;;;;;;;;;-140.72;100.00;52910.34;5063578;28;19975;-70
2023/09/23 07:00:54;;;;;;;;;;;;;;;-140.72;100.00;52944.84;5069628;28;19924;-71
2023/09/23 07:03:21;;;;;;;;;;;;;;;-140.72;100.00;52896.16;5064638;28;20330;-72
2023/09/23 07:05:46;;;;;;;;;;;;;;;-140.72;100.00;52944.84;5070813;28;19986;-70
2023/09/23 07:08:11;;;;;;;;;;;;;;;-140.72;100.00;52948.91;5071224;28;19920;-69
2023/09/23 07:10:38;;;;;;;;;;;;;;;-140.72;100.00;52946.88;5073383;28;19920;-69
2023/09/23 07:13:06;;;;;;;;;;;;;;;-140.72;100.00;52914.41;5070860;28;19929;-71
2023/09/23 07:15:35;;;;;;;;;;;;;;;-140.72;100.00;52914.41;5072342;28;19932;-67
2023/09/23 07:18:00;;;;;;;;;;;;;;;-140.72;100.00;52948.91;5065546;28;19932;-69
2023/09/23 07:20:26;;;;;;;;;;;;;;;-140.72;100.00;52950.94;5067691;28;20302;-70
2023/09/23 07:22:51;;;;;;;;;;;;;;;-140.72;100.00;52946.88;5072126;28;19920;-70
2023/09/23 07:25:17;;;;;;;;;;;;;;;-140.72;100.00;52898.16;5069929;28;19951;-70
2023/09/23 07:27:42;;;;;;;;;;;;;;;-140.72;100.00;52922.53;5069708;28;20003;-70
2023/09/23 07:30:07;;;;;;;;;;;;;;;-140.72;100.00;52918.47;5068942;28;20007;-69
2023/09/23 07:32:32;;;;;;;;;;;;;;;-140.72;100.00;52908.31;5064754;28;20402;-70
2023/09/23 07:34:58;;;;;;;;;;;;;;;-140.72;100.00;52896.16;5067625;28;19920;-69
2023/09/23 07:37:23;;;;;;;;;;;;;;;-140.72;100.00;52902.22;5065735;28;19920;-69
2023/09/23 07:39:48;;;;;;;;;;;;;;;-140.72;100.00;52918.47;5068511;28;19920;-70
2023/09/23 07:42:13;;;;;;;;;;;;;;;-140.72;100.00;52914.41;5071243;28;20302;-74
2023/09/23 07:44:39;;;;;;;;;;;;;;;-140.72;100.00;52924.56;5069120;28;19928;-72
2023/09/23 07:47:07;;;;;;;;;;;;;;;-140.72;100.00;52928.63;5065568;28;20294;-68
2023/09/23 07:49:34;;;;;;;;;;;;;;;-140.72;100.00;52920.50;5060562;28;19921;-69
2023/09/23 07:51:59;;;;;;;;;;;;;;;-140.72;100.00;52918.47;5065419;28;19927;-69
2023/09/23 07:54:24;;;;;;;;;;;;;;;-140.72;100.00;52896.16;5072877;28;19920;-68
2023/09/23 07:56:49;;;;;;;;;;;;;;;-140.72;100.00;52906.28;5072473;28;19925;-68
2023/09/23 07:59:15;;;;;;;;;;;;;;;-140.72;100.00;52928.63;5071758;28;19946;-68
2023/09/23 08:01:43;;;;;;;;;;;;;;;-140.72;100.00;52894.13;5072388;28;19966;-68
2023/09/23 08:04:08;;;;;;;;;;;;;;;-140.72;100.00;52896.16;5072548;28;20290;-68
2023/09/23 08:06:33;;;;;;;;;;;;;;;-140.72;100.00;52940.78;5081254;28;19974;-68
2023/09/23 08:08:58;;;;;;;;;;;;;;;-140.72;100.00;52926.59;5069963;28;19962;-70
2023/09/23 08:11:24;;;;;;;;;;;;;;;-140.72;100.00;52877.88;5073491;28;19927;-70
2023/09/23 08:13:51;;;;;;;;;;;;;;;-140.72;100.00;52938.75;5072274;28;19920;-71
2023/09/23 08:16:16;;;;;;;;;;;;;;;-140.72;100.00;52894.13;5071097;28;19966;-70
2023/09/23 08:18:42;;;;;;;;;;;;;;;-140.72;100.00;52916.44;5069307;28;20387;-71
2023/09/23 08:21:07;;;;;;;;;;;;;;;-140.72;100.00;52896.16;5069586;28;20358;-70
2023/09/23 08:23:33;;;;;;;;;;;;;;;-140.72;100.00;52881.94;5067750;28;19965;-70
2023/09/23 08:25:58;;;;;;;;;;;;;;;-140.72;100.00;52914.41;5069489;28;19927;-70
2023/09/23 08:28:24;;;;;;;;;;;;;;;-140.72;100.00;52918.47;5073825;28;19920;-70
2023/09/23 08:30:50;;;;;;;;;;;;;;;-140.72;100.00;52894.13;5071645;28;19927;-75
2023/09/23 08:33:15;;;;;;;;;;;;;;;-140.72;100.00;52867.72;5071633;28;19920;-70
2023/09/23 08:35:42;;;;;;;;;;;;;;;-140.72;100.00;52869.75;5069257;28;19948;-70
2023/09/23 08:38:08;;;;;;;;;;;;;;;-140.72;100.00;52912.38;5070872;28;19943;-70
2023/09/23 08:40:34;;;;;;;;;;;;;;;-140.72;100.00;52831.19;5069908;28;19921;-69
2023/09/23 08:43:03;;;;;;;;;;;;;;;-140.72;100.00;52873.81;5069344;28;19921;-70
2023/09/23 08:45:30;;;;;;;;;;;;;;;-140.72;100.00;52865.69;5069830;28;19952;-69
2023/09/23 08:47:56;;;;;;;;;;;;;;;-140.72;100.00;52861.66;5069238;28;19982;-70
2023/09/23 08:50:21;;;;;;;;;;;;;;;-140.72;100.00;52819.03;5070991;28;20020;-71
2023/09/23 08:52:47;;;;;;;;;;;;;;;-140.72;100.00;52792.66;5073589;28;20007;-72
2023/09/23 08:55:14;;;;;;;;;;;;;;;-140.72;100.00;52800.75;5069394;28;19927;-70
2023/09/23 08:57:39;;;;;;;;;;;;;;;-140.72;100.00;52798.72;5068130;28;19932;-72
2023/09/23 09:00:08;;;;;;;;;;;;;;;-140.72;100.00;52800.75;5068506;28;19924;-71
2023/09/23 09:02:34;;;;;;;;;;;;;;;-140.72;100.00;52812.94;5074196;28;20361;-73
2023/09/23 09:04:59;;;;;;;;;;;;;;;-140.72;100.00;52819.03;5073619;28;19960;-72
2023/09/23 09:07:31;;;;;;;;;;;;;;;-140.72;100.00;52812.94;5066762;28;19929;-69
2023/09/23 09:09:57;;;;;;;;;;;;;;;-140.72;100.00;52823.09;5064650;28;19920;-70
2023/09/23 09:12:22;;;;;;;;;;;;;;;-140.72;100.00;52794.69;5066960;28;19927;-69
2023/09/23 09:14:49;;;;;;;;;;;;;;;-140.72;100.00;52754.09;5065164;28;20037;-71
2023/09/23 09:17:15;;;;;;;;;;;;;;;-140.72;100.00;52784.53;5083840;28;19932;-75
2023/09/23 09:19:40;;;;;;;;;;;;;;;-140.72;100.00;52810.91;5068345;28;19929;-75
2023/09/23 09:22:06;;;;;;;;;;;;;;;-140.72;100.00;52808.88;5068582;28;19927;-76
2023/09/23 09:24:33;;;;;;;;;;;;;;;-140.72;100.00;52808.88;5070177;28;19980;-75
2023/09/23 09:26:58;;;;;;;;;;;;;;;-140.72;100.00;52833.22;5067798;28;19924;-77
2023/09/23 09:29:24;;;;;;;;;;;;;;;-140.72;100.00;52827.16;5067415;28;19943;-75
2023/09/23 09:31:51;;;;;;;;;;;;;;;-140.72;100.00;52817.00;5069760;28;19920;-76
2023/09/23 09:34:18;;;;;;;;;;;;;;;-140.72;100.00;52841.34;5068932;28;20375;-76
2023/09/23 09:36:43;;;;;;;;;;;;;;;-140.72;100.00;52817.00;5072888;28;19924;-76
2023/09/23 09:39:12;;;;;;;;;;;;;;;-140.72;100.00;52841.34;5067186;28;19928;-77
2023/09/23 09:41:45;;;;;;;;;;;;;;;-140.72;100.00;52808.88;5065787;28;20675;-77
2023/09/23 09:44:11;;;;;;;;;;;;;;;-140.72;100.00;52812.94;5085298;28;19955;-77
2023/09/23 09:46:38;;;;;;;;;;;;;;;-140.72;100.00;52829.19;5072404;28;19921;-75
2023/09/23 09:49:04;;;;;;;;;;;;;;;-140.72;100.00;52833.22;5068348;28;19972;-76
2023/09/23 09:51:30;;;;;;;;;;;;;;;-140.72;100.00;52835.25;5068627;28;20390;-74
2023/09/23 09:53:56;;;;;;;;;;;;;;;-140.72;100.00;52804.81;5072600;28;19928;-74
2023/09/23 09:56:21;;;;;;;;;;;;;;;-140.72;100.00;52825.13;5067694;28;19925;-76
2023/09/23 09:58:48;;;;;;;;;;;;;;;-140.72;100.00;52788.59;5064809;28;19935;-75
2023/09/23 10:01:13;;;;;;;;;;;;;;;-140.72;100.00;52843.38;5069357;28;19927;-74
2023/09/23 10:03:50;;;;;;;;;;;;;;;-140.72;100.00;52835.25;5070475;28;20003;-78
2023/09/23 10:06:18;;;;;;;;;;;;;;;-140.72;100.00;52821.06;5066821;28;19925;-75
2023/09/23 10:08:46;;;;;;;;;;;;;;;-140.72;100.00;52804.81;5069822;28;20010;-74
2023/09/23 10:11:11;;;;;;;;;;;;;;;-140.72;100.00;52768.28;5066730;28;19924;-74
2023/09/23 10:13:37;;;;;;;;;;;;;;;-140.72;100.00;52711.47;5068783;28;20003;-75
2023/09/23 10:16:05;;;;;;;;;;;;;;;-140.72;100.00;52707.41;5068911;28;19920;-75
2023/09/23 10:18:35;;;;;;;;;;;;;;;-140.72;100.00;52638.41;5070039;28;19930;-75
2023/09/23 10:21:02;;;;;;;;;;;;;;;-140.72;100.00;52571.47;5070101;28;19972;-75
2023/09/23 10:23:27;;;;;;;;;;;;;;;-140.72;100.00;52644.50;5068988;28;19928;-75
2023/09/23 10:25:52;;;;;;;;;;;;;;;-140.72;100.00;52672.91;5068405;28;20346;-79
2023/09/23 10:28:22;;;;;;;;;;;;;;;-140.72;100.00;52662.78;5069614;28;19966;-76
2023/09/23 10:30:57;;;;;;;;;;;;;;;-140.72;100.00;52685.09;5077360;28;19964;-75
2023/09/23 10:33:23;;;;;;;;;;;;;;;-140.72;100.00;52735.81;5066145;28;19987;-74
2023/09/23 10:35:48;;;;;;;;;;;;;;;-140.72;100.00;52760.19;5071196;28;20385;-75
2023/09/23 10:38:20;;;;;;;;;;;;;;;-140.72;100.00;52819.03;5069451;28;19960;-74
2023/09/23 10:40:52;;;;;;;;;;;;;;;-140.72;100.00;52804.81;5089543;28;19969;-75
2023/09/23 10:43:18;;;;;;;;;;;;;;;-140.72;100.00;52817.00;5071729;28;19924;-70
2023/09/23 10:45:43;;;;;;;;;;;;;;;-140.72;100.00;52823.09;5071814;28;20417;-68
2023/09/23 10:48:09;;;;;;;;;;;;;;;-140.72;100.00;52770.31;5072084;28;19925;-69
2023/09/23 10:50:34;;;;;;;;;;;;;;;-140.72;100.00;52841.34;5072661;28;19959;-70
2023/09/23 10:52:59;;;;;;;;;;;;;;;-140.72;100.00;52792.66;5077340;28;19986;-71
2023/09/23 10:55:24;;;;;;;;;;;;;;;-140.72;100.00;52833.22;5066689;28;19921;-71
2023/09/23 10:57:51;;;;;;;;;;;;;;;-140.72;100.00;52817.00;5070992;28;20117;-70
2023/09/23 11:00:20;;;;;;;;;;;;;;;-140.72;100.00;52810.91;5067798;28;19920;-71
2023/09/23 11:02:50;;;;;;;;;;;;;;;-140.72;100.00;52825.13;5066759;28;19957;-68
2023/09/23 11:05:15;;;;;;;;;;;;;;;-140.72;100.00;52778.44;5071198;28;20324;-68
2023/09/23 11:07:42;;;;;;;;;;;;;;;-140.72;100.00;52804.81;5070817;28;20015;-68
2023/09/23 11:10:11;;;;;;;;;;;;;;;-140.72;100.00;52800.75;5072017;28;20403;-71
2023/09/23 11:12:36;;;;;;;;;;;;;;;-140.72;100.00;52804.81;5074306;28;20102;-71
2023/09/23 11:15:02;;;;;;;;;;;;;;;-140.72;100.00;52800.75;5072360;28;20025;-70
2023/09/23 11:17:30;;;;;;;;;;;;;;;-140.72;100.00;52808.88;5074072;28;19997;-71
2023/09/23 11:20:10;;;;;;;;;;;;;;;-140.72;100.00;52817.00;5073068;28;20426;-71
2023/09/23 11:22:35;;;;;;;;;;;;;;;-140.72;100.00;52835.25;5068456;28;19920;-71
2023/09/23 11:25:01;;;;;;;;;;;;;;;-140.72;100.00;52800.75;5065801;28;19977;-71
2023/09/23 11:27:26;;;;;;;;;;;;;;;-140.72;100.00;52843.38;5081080;28;19928;-70
2023/09/23 11:29:52;;;;;;;;;;;;;;;-140.72;100.00;52814.97;5072367;28;20026;-71
2023/09/23 11:32:24;;;;;;;;;;;;;;;-140.72;100.00;52812.94;5076027;28;20501;-70
2023/09/23 11:35:00;;;;;;;;;;;;;;;-140.72;100.00;52770.31;5076766;28;19969;-68
2023/09/23 11:37:26;;;;;;;;;;;;;;;-140.72;100.00;52752.06;5074289;28;20046;-71
2023/09/23 11:39:51;;;;;;;;;;;;;;;-140.72;100.00;52721.63;5070880;28;19973;-73
2023/09/23 11:42:17;;;;;;;;;;;;;;;-140.72;100.00;52695.25;5074038;28;19925;-73
2023/09/23 11:44:43;;;;;;;;;;;;;;;-140.72;100.00;52587.69;5075212;28;19921;-71
2023/09/23 11:47:11;;;;;;;;;;;;;;;-140.72;100.00;52660.75;5068444;28;20442;-73
2023/09/23 11:50:12;;;;;;;;;;;;;;;-140.72;100.00;52697.28;5081866;28;20395;-69
2023/09/23 11:52:37;;;;;;;;;;;;;;;-140.72;100.00;52756.13;5068218;28;19927;-69
2023/09/23 11:55:03;;;;;;;;;;;;;;;-140.72;100.00;52764.25;5069878;28;19925;-69
2023/09/23 11:57:28;;;;;;;;;;;;;;;-140.72;100.00;52808.88;5072118;28;19924;-71
2023/09/23 11:59:54;;;;;;;;;;;;;;;-140.72;100.00;52764.25;5073072;28;20011;-73
2023/09/23 12:02:19;;;;;;;;;;;;;;;-140.72;100.00;52784.53;5069436;28;19920;-73
2023/09/23 12:04:46;;;;;;;;;;;;;;;-140.72;100.00;52845.41;5067288;28;20268;-74
2023/09/23 12:07:12;;;;;;;;;;;;;;;-140.72;100.00;52853.53;5072514;28;19928;-71
2023/09/23 12:09:37;;;;;;;;;;;;;;;-140.72;100.00;52849.47;5065669;28;19920;-72
2023/09/23 12:12:03;;;;;;;;;;;;;;;-140.72;100.00;52812.94;5068606;28;19953;-73
2023/09/23 12:14:28;;;;;;;;;;;;;;;-140.72;100.00;52831.19;5070242;28;20383;-73
2023/09/23 12:16:54;;;;;;;;;;;;;;;-140.72;100.00;52825.13;5071007;28;20320;-73